Accueil
METAR-TAF:

METAR-TAF

Aéroports :

Aéroport de Pau-Pyrénées

Pau, France

latitude: 43-23N, longitude: 000-25W, altitude: 188 m

Observation

Le bulletin a été fait il y a 38 minutes, à 12:00 UTC
Vent 8 kt de nord-est, variant entre nord et est
Température 21°C
Humidité 28%
Pression 1015 hPa
Visibilité 10 km ou plus
pas de nuages en-dessous de 1500 mètres et pas de cumulonimbus.

METAR: LFBP 041200Z AUTO 05008KT 010V090 CAVOK 21/02 Q1015 NOSIG

Heure: 14:38 (12:38 UTC)

Prévision

Le bulletin a été fait il y a 1 heure et 38 minutes, à 11:00 UTC
Prévision valable du 04 à 12 UTC au 05 à 12 UTC
Vent 5 kt de est/sud-est
Visibilité 10 km ou plus
pas de nuages en-dessous de 1500 mètres et pas de cumulonimbus.
Probabilité 30% :
Temporairement
du 05 à 02 UTC au 05 à 06 UTC
Vent 2 kt de direction variable
Visibilité: 3000 m
brume

TAF: LFBP 041100Z 0412/0512 11005KT CAVOK PROB30 TEMPO 0502/0506 VRB02KT 3000 BR

Observations et prévisions météorologiques de plus de 4000 aéroports (messages METAR et TAF).

Les stations disponibles sont représentées par des disques jaunes et rouges sur la carte.

Passer la souris dessus pour voir le nom de la station.

Cliquer dessus pour voir les observations et prévisions météorologiques.

Pour changer de carte: cliquez sur les boutons verts avec une croix noire pour zoomer, sur le bouton vert avec un tiret pour effectuer un zoom arrière, ou sur les flèches vertes pour les cartes adjacentes.


METAR-TAF: